PWSweather.com
Personal Weather Stations
Station Observations
TENMILE2
Watts Bar Lake, Ten Mile, TN 37880

Watts Bar LakeTen Mile, TN 37880

Lat: 35.686, Lon: -84.7068

Elevation: 767

Station Type: Davis VP2

http://www.wattsbarweather.net

High Low Average
Temperature 88.7°F31.5°C 71.9°F22.2°C 76.9°F24.9°C
Dew Point 76.5°F24.7°C 70.7°F21.5°C 72.9°F22.7°C
Winds 8.5 mph 13.7 kmh Calm Calm 1.0 mph E1.6 kmh E
Wind Gusts 15.0 mph24.1 kmh -- 3.0 mph4.8 kmh
Humidity 96% 58% 88%
Pressure 29.98 in1015.2 mb 29.91 in1012.9 mb -
Precipitation 0.26 in6.6 mm - -
Hour Temp Dew Point Humidity Winds Wind Gusts Pressure Precip Precip Rate Daily Precip Total
12:02 AM 72.8°F22.7°C 71.6°F22.0°C 96% Calm Calm -- 29.97 in1014.9 mb 0.00 in0.0 mm 0.00 in0.0 mm 0.00 in0.0 mm
12:07 AM 72.9°F22.7°C 71.7°F22.1°C 96% Calm Calm -- 29.96 in1014.6 mb 0.00 in0.0 mm 0.00 in0.0 mm 0.00 in0.0 mm
12:12 AM 72.9°F22.7°C 71.7°F22.1°C 96% Calm Calm -- 29.96 in1014.6 mb 0.00 in0.0 mm 0.00 in0.0 mm 0.00 in0.0 mm
12:17 AM 72.9°F22.7°C 71.7°F22.1°C 96% Calm Calm -- 29.96 in1014.6 mb 0.00 in0.0 mm 0.00 in0.0 mm 0.00 in0.0 mm
12:22 AM 72.9°F22.7°C 71.7°F22.1°C 96% Calm Calm -- 29.96 in1014.6 mb 0.00 in0.0 mm 0.00 in0.0 mm 0.00 in0.0 mm
12:27 AM 72.9°F22.7°C 71.7°F22.1°C 96% Calm Calm -- 29.96 in1014.6 mb 0.00 in0.0 mm 0.00 in0.0 mm 0.00 in0.0 mm
12:32 AM 72.9°F22.7°C 71.7°F22.1°C 96% Calm Calm -- 29.96 in1014.6 mb 0.00 in0.0 mm 0.00 in0.0 mm 0.00 in0.0 mm
12:37 AM 72.9°F22.7°C 71.7°F22.1°C 96% Calm Calm -- 29.96 in1014.6 mb 0.00 in0.0 mm 0.00 in0.0 mm 0.00 in0.0 mm
12:42 AM 72.9°F22.7°C 71.7°F22.1°C 96% Calm Calm -- 29.96 in1014.6 mb 0.00 in0.0 mm 0.00 in0.0 mm 0.00 in0.0 mm
12:47 AM 72.9°F22.7°C 71.7°F22.1°C 96% Calm Calm -- 29.96 in1014.6 mb 0.00 in0.0 mm 0.00 in0.0 mm 0.00 in0.0 mm
12:52 AM 72.9°F22.7°C 71.7°F22.1°C 96% Calm Calm -- 29.96 in1014.6 mb 0.00 in0.0 mm 0.00 in0.0 mm 0.00 in0.0 mm
12:57 AM 72.9°F22.7°C 71.7°F22.1°C 96% Calm Calm -- 29.96 in1014.6 mb 0.00 in0.0 mm 0.00 in0.0 mm 0.00 in0.0 mm
01:02 AM 72.8°F22.7°C 71.6°F22.0°C 96% Calm Calm -- 29.95 in1014.2 mb 0.00 in0.0 mm 0.00 in0.0 mm 0.00 in0.0 mm
01:08 AM 72.8°F22.7°C 71.6°F22.0°C 96% Calm Calm -- 29.95 in1014.2 mb 0.00 in0.0 mm 0.00 in0.0 mm 0.00 in0.0 mm
01:13 AM 72.9°F22.7°C 71.7°F22.1°C 96% Calm Calm -- 29.95 in1014.2 mb 0.00 in0.0 mm 0.00 in0.0 mm 0.00 in0.0 mm
01:18 AM 72.9°F22.7°C 71.7°F22.1°C 96% Calm Calm -- 29.95 in1014.2 mb 0.00 in0.0 mm 0.00 in0.0 mm 0.00 in0.0 mm
01:23 AM 72.9°F22.7°C 71.7°F22.1°C 96% Calm Calm -- 29.96 in1014.6 mb 0.00 in0.0 mm 0.00 in0.0 mm 0.00 in0.0 mm
01:28 AM 72.9°F22.7°C 71.7°F22.1°C 96% Calm Calm -- 29.96 in1014.6 mb 0.00 in0.0 mm 0.00 in0.0 mm 0.00 in0.0 mm
01:33 AM 72.9°F22.7°C 71.7°F22.1°C 96% Calm Calm -- 29.96 in1014.6 mb 0.00 in0.0 mm 0.00 in0.0 mm 0.00 in0.0 mm
01:38 AM 72.8°F22.7°C 71.6°F22.0°C 96% Calm Calm -- 29.97 in1014.9 mb 0.00 in0.0 mm 0.00 in0.0 mm 0.00 in0.0 mm
01:43 AM 72.6°F22.6°C 71.4°F21.9°C 96% Calm Calm -- 29.97 in1014.9 mb 0.00 in0.0 mm 0.00 in0.0 mm 0.00 in0.0 mm
01:48 AM 72.5°F22.5°C 71.3°F21.8°C 96% Calm Calm -- 29.97 in1014.9 mb 0.00 in0.0 mm 0.00 in0.0 mm 0.00 in0.0 mm
01:53 AM 72.6°F22.6°C 71.4°F21.9°C 96% Calm Calm -- 29.97 in1014.9 mb 0.00 in0.0 mm 0.00 in0.0 mm 0.00 in0.0 mm
01:58 AM 72.4°F22.4°C 71.2°F21.8°C 96% Calm Calm -- 29.97 in1014.9 mb 0.00 in0.0 mm 0.00 in0.0 mm 0.00 in0.0 mm
02:03 AM 72.4°F22.4°C 71.2°F21.8°C 96% Calm Calm -- 29.97 in1014.9 mb 0.00 in0.0 mm 0.00 in0.0 mm 0.00 in0.0 mm
02:08 AM 72.3°F22.4°C 71.1°F21.7°C 96% Calm Calm -- 29.97 in1014.9 mb 0.00 in0.0 mm 0.00 in0.0 mm 0.00 in0.0 mm
02:13 AM 72.3°F22.4°C 71.1°F21.7°C 96% Calm Calm -- 29.97 in1014.9 mb 0.00 in0.0 mm 0.00 in0.0 mm 0.00 in0.0 mm
02:18 AM 72.2°F22.3°C 71.0°F21.7°C 96% Calm Calm -- 29.96 in1014.6 mb 0.00 in0.0 mm 0.00 in0.0 mm 0.00 in0.0 mm
02:23 AM 72.3°F22.4°C 71.1°F21.7°C 96% Calm Calm 1.3 mph2.1 kmh 29.96 in1014.6 mb 0.00 in0.0 mm 0.00 in0.0 mm 0.00 in0.0 mm
02:28 AM 72.3°F22.4°C 71.1°F21.7°C 96% Calm Calm 1.3 mph2.1 kmh 29.97 in1014.9 mb 0.00 in0.0 mm 0.00 in0.0 mm 0.00 in0.0 mm
02:33 AM 72.2°F22.3°C 71.0°F21.7°C 96% Calm Calm 1.0 mph1.6 kmh 29.97 in1014.9 mb 0.00 in0.0 mm 0.00 in0.0 mm 0.00 in0.0 mm
02:38 AM 72.3°F22.4°C 71.1°F21.7°C 96% Calm Calm 1.0 mph1.6 kmh 29.96 in1014.6 mb 0.00 in0.0 mm 0.00 in0.0 mm 0.00 in0.0 mm
02:43 AM 72.4°F22.4°C 71.2°F21.8°C 96% Calm Calm -- 29.96 in1014.6 mb 0.00 in0.0 mm 0.00 in0.0 mm 0.00 in0.0 mm
02:48 AM 72.3°F22.4°C 71.1°F21.7°C 96% Calm Calm -- 29.96 in1014.6 mb 0.00 in0.0 mm 0.00 in0.0 mm 0.00 in0.0 mm
02:53 AM 72.3°F22.4°C 71.1°F21.7°C 96% Calm Calm -- 29.96 in1014.6 mb 0.00 in0.0 mm 0.00 in0.0 mm 0.00 in0.0 mm
02:58 AM 72.2°F22.3°C 71.0°F21.7°C 96% Calm Calm -- 29.96 in1014.6 mb 0.00 in0.0 mm 0.00 in0.0 mm 0.00 in0.0 mm
03:03 AM 72.2°F22.3°C 71.0°F21.7°C 96% Calm Calm -- 29.96 in1014.6 mb 0.00 in0.0 mm 0.00 in0.0 mm 0.00 in0.0 mm
03:08 AM 72.2°F22.3°C 71.0°F21.7°C 96% Calm Calm -- 29.96 in1014.6 mb 0.00 in0.0 mm 0.00 in0.0 mm 0.00 in0.0 mm
03:13 AM 72.2°F22.3°C 71.0°F21.7°C 96% Calm Calm -- 29.96 in1014.6 mb 0.00 in0.0 mm 0.00 in0.0 mm 0.00 in0.0 mm
03:18 AM 72.2°F22.3°C 71.0°F21.7°C 96% Calm Calm -- 29.96 in1014.6 mb 0.00 in0.0 mm 0.00 in0.0 mm 0.00 in0.0 mm
03:23 AM 72.2°F22.3°C 71.0°F21.7°C 96% Calm Calm -- 29.96 in1014.6 mb 0.00 in0.0 mm 0.00 in0.0 mm 0.00 in0.0 mm
03:28 AM 72.1°F22.3°C 70.9°F21.6°C 96% Calm Calm -- 29.96 in1014.6 mb 0.00 in0.0 mm 0.00 in0.0 mm 0.00 in0.0 mm
03:33 AM 72.2°F22.3°C 71.0°F21.7°C 96% Calm Calm -- 29.96 in1014.6 mb 0.00 in0.0 mm 0.00 in0.0 mm 0.00 in0.0 mm
03:38 AM 72.2°F22.3°C 71.0°F21.7°C 96% Calm Calm -- 29.96 in1014.6 mb 0.00 in0.0 mm 0.00 in0.0 mm 0.00 in0.0 mm
03:43 AM 72.1°F22.3°C 70.9°F21.6°C 96% Calm Calm -- 29.96 in1014.6 mb 0.00 in0.0 mm 0.00 in0.0 mm 0.00 in0.0 mm
03:48 AM 72.2°F22.3°C 71.0°F21.7°C 96% Calm Calm -- 29.96 in1014.6 mb 0.00 in0.0 mm 0.00 in0.0 mm 0.00 in0.0 mm
03:53 AM 72.2°F22.3°C 71.0°F21.7°C 96% Calm Calm -- 29.95 in1014.2 mb 0.00 in0.0 mm 0.00 in0.0 mm 0.00 in0.0 mm
03:58 AM 72.2°F22.3°C 71.0°F21.7°C 96% Calm Calm -- 29.95 in1014.2 mb 0.00 in0.0 mm 0.00 in0.0 mm 0.00 in0.0 mm
04:03 AM 72.2°F22.3°C 71.0°F21.7°C 96% Calm Calm -- 29.95 in1014.2 mb 0.00 in0.0 mm 0.00 in0.0 mm 0.00 in0.0 mm
04:08 AM 72.2°F22.3°C 71.0°F21.7°C 96% Calm Calm -- 29.95 in1014.2 mb 0.00 in0.0 mm 0.00 in0.0 mm 0.00 in0.0 mm
04:13 AM 72.2°F22.3°C 71.0°F21.7°C 96% Calm Calm -- 29.95 in1014.2 mb 0.00 in0.0 mm 0.00 in0.0 mm 0.00 in0.0 mm
04:18 AM 72.2°F22.3°C 71.0°F21.7°C 96% Calm Calm -- 29.95 in1014.2 mb 0.00 in0.0 mm 0.00 in0.0 mm 0.00 in0.0 mm
04:23 AM 72.3°F22.4°C 71.1°F21.7°C 96% Calm Calm -- 29.95 in1014.2 mb 0.00 in0.0 mm 0.00 in0.0 mm 0.00 in0.0 mm
04:28 AM 72.2°F22.3°C 71.0°F21.7°C 96% Calm Calm -- 29.95 in1014.2 mb 0.00 in0.0 mm 0.00 in0.0 mm 0.00 in0.0 mm
04:33 AM 72.4°F22.4°C 71.2°F21.8°C 96% Calm Calm -- 29.95 in1014.2 mb 0.00 in0.0 mm 0.00 in0.0 mm 0.00 in0.0 mm
04:38 AM 72.4°F22.4°C 71.2°F21.8°C 96% Calm Calm -- 29.94 in1013.9 mb 0.00 in0.0 mm 0.00 in0.0 mm 0.00 in0.0 mm
04:43 AM 72.4°F22.4°C 71.2°F21.8°C 96% Calm Calm -- 29.95 in1014.2 mb 0.00 in0.0 mm 0.00 in0.0 mm 0.00 in0.0 mm
04:48 AM 72.4°F22.4°C 71.2°F21.8°C 96% 1.3 mph N2.1 kmh N 1.3 mph2.1 kmh 29.95 in1014.2 mb 0.00 in0.0 mm 0.00 in0.0 mm 0.00 in0.0 mm
04:53 AM 72.4°F22.4°C 71.2°F21.8°C 96% Calm Calm 1.3 mph2.1 kmh 29.95 in1014.2 mb 0.00 in0.0 mm 0.00 in0.0 mm 0.00 in0.0 mm
04:58 AM 72.4°F22.4°C 71.2°F21.8°C 96% Calm Calm 1.3 mph2.1 kmh 29.95 in1014.2 mb 0.00 in0.0 mm 0.00 in0.0 mm 0.00 in0.0 mm
05:03 AM 72.4°F22.4°C 71.2°F21.8°C 96% Calm Calm 1.3 mph2.1 kmh 29.95 in1014.2 mb 0.00 in0.0 mm 0.00 in0.0 mm 0.00 in0.0 mm
05:08 AM 72.4°F22.4°C 71.2°F21.8°C 96% Calm Calm 1.0 mph1.6 kmh 29.95 in1014.2 mb 0.00 in0.0 mm 0.00 in0.0 mm 0.00 in0.0 mm
05:13 AM 72.4°F22.4°C 71.2°F21.8°C 96% Calm Calm 1.0 mph1.6 kmh 29.95 in1014.2 mb 0.00 in0.0 mm 0.00 in0.0 mm 0.00 in0.0 mm
05:22 AM 72.4°F22.4°C 71.2°F21.8°C 96% Calm Calm 1.3 mph2.1 kmh 29.95 in1014.2 mb 0.00 in0.0 mm 0.00 in0.0 mm 0.00 in0.0 mm
05:27 AM 72.4°F22.4°C 71.2°F21.8°C 96% Calm Calm 1.3 mph2.1 kmh 29.95 in1014.2 mb 0.00 in0.0 mm 0.00 in0.0 mm 0.00 in0.0 mm
05:32 AM 72.4°F22.4°C 71.2°F21.8°C 96% 1.3 mph NNE2.1 kmh NNE 1.3 mph2.1 kmh 29.95 in1014.2 mb 0.00 in0.0 mm 0.00 in0.0 mm 0.00 in0.0 mm
05:37 AM 72.4°F22.4°C 71.2°F21.8°C 96% 1.3 mph WSW2.1 kmh WSW 1.3 mph2.1 kmh 29.95 in1014.2 mb 0.00 in0.0 mm 0.00 in0.0 mm 0.00 in0.0 mm
05:42 AM 72.4°F22.4°C 71.2°F21.8°C 96% Calm Calm 1.3 mph2.1 kmh 29.95 in1014.2 mb 0.00 in0.0 mm 0.00 in0.0 mm 0.00 in0.0 mm
05:47 AM 72.4°F22.4°C 71.2°F21.8°C 96% 1.5 mph NE2.4 kmh NE 2.5 mph4.0 kmh 29.95 in1014.2 mb 0.00 in0.0 mm 0.00 in0.0 mm 0.00 in0.0 mm
05:52 AM 72.4°F22.4°C 71.2°F21.8°C 96% Calm Calm 2.5 mph4.0 kmh 29.95 in1014.2 mb 0.00 in0.0 mm 0.00 in0.0 mm 0.00 in0.0 mm
05:57 AM 72.3°F22.4°C 71.1°F21.7°C 96% Calm Calm 2.0 mph3.2 kmh 29.95 in1014.2 mb 0.00 in0.0 mm 0.00 in0.0 mm 0.00 in0.0 mm
06:02 AM 72.3°F22.4°C 71.1°F21.7°C 96% Calm Calm 2.0 mph3.2 kmh 29.95 in1014.2 mb 0.00 in0.0 mm 0.00 in0.0 mm 0.00 in0.0 mm
06:07 AM 72.1°F22.3°C 70.9°F21.6°C 96% Calm Calm 1.3 mph2.1 kmh 29.95 in1014.2 mb 0.00 in0.0 mm 0.00 in0.0 mm 0.00 in0.0 mm
06:12 AM 72.0°F22.2°C 70.8°F21.6°C 96% Calm Calm 1.3 mph2.1 kmh 29.95 in1014.2 mb 0.00 in0.0 mm 0.00 in0.0 mm 0.00 in0.0 mm
06:17 AM 72.0°F22.2°C 70.8°F21.6°C 96% Calm Calm 1.3 mph2.1 kmh 29.95 in1014.2 mb 0.00 in0.0 mm 0.00 in0.0 mm 0.00 in0.0 mm
06:22 AM 72.1°F22.3°C 70.9°F21.6°C 96% Calm Calm 1.0 mph1.6 kmh 29.96 in1014.6 mb 0.00 in0.0 mm 0.00 in0.0 mm 0.00 in0.0 mm
06:27 AM 72.2°F22.3°C 71.0°F21.7°C 96% Calm Calm 1.0 mph1.6 kmh 29.96 in1014.6 mb 0.00 in0.0 mm 0.00 in0.0 mm 0.00 in0.0 mm
06:32 AM 72.3°F22.4°C 71.1°F21.7°C 96% Calm Calm -- 29.96 in1014.6 mb 0.00 in0.0 mm 0.00 in0.0 mm 0.00 in0.0 mm
06:37 AM 72.4°F22.4°C 71.2°F21.8°C 96% Calm Calm -- 29.96 in1014.6 mb 0.00 in0.0 mm 0.00 in0.0 mm 0.00 in0.0 mm
06:42 AM 72.4°F22.4°C 71.2°F21.8°C 96% Calm Calm -- 29.96 in1014.6 mb 0.00 in0.0 mm 0.00 in0.0 mm 0.00 in0.0 mm
06:47 AM 72.4°F22.4°C 71.2°F21.8°C 96% Calm Calm -- 29.96 in1014.6 mb 0.00 in0.0 mm 0.00 in0.0 mm 0.00 in0.0 mm
06:52 AM 72.4°F22.4°C 71.2°F21.8°C 96% Calm Calm -- 29.96 in1014.6 mb 0.00 in0.0 mm 0.00 in0.0 mm 0.00 in0.0 mm
06:57 AM 72.4°F22.4°C 71.2°F21.8°C 96% Calm Calm -- 29.96 in1014.6 mb 0.00 in0.0 mm 0.00 in0.0 mm 0.00 in0.0 mm
07:02 AM 72.4°F22.4°C 71.2°F21.8°C 96% Calm Calm -- 29.96 in1014.6 mb 0.00 in0.0 mm 0.00 in0.0 mm 0.00 in0.0 mm
07:07 AM 72.3°F22.4°C 71.1°F21.7°C 96% Calm Calm -- 29.96 in1014.6 mb 0.00 in0.0 mm 0.00 in0.0 mm 0.00 in0.0 mm
07:12 AM 72.3°F22.4°C 71.1°F21.7°C 96% Calm Calm -- 29.96 in1014.6 mb 0.00 in0.0 mm 0.00 in0.0 mm 0.00 in0.0 mm
07:17 AM 72.2°F22.3°C 71.0°F21.7°C 96% Calm Calm -- 29.96 in1014.6 mb 0.00 in0.0 mm 0.00 in0.0 mm 0.00 in0.0 mm
07:22 AM 72.2°F22.3°C 71.0°F21.7°C 96% Calm Calm -- 29.97 in1014.9 mb 0.00 in0.0 mm 0.00 in0.0 mm 0.00 in0.0 mm
07:27 AM 72.3°F22.4°C 71.1°F21.7°C 96% 1.5 mph NE2.4 kmh NE 2.5 mph4.0 kmh 29.96 in1014.6 mb 0.00 in0.0 mm 0.00 in0.0 mm 0.00 in0.0 mm
07:32 AM 72.4°F22.4°C 71.2°F21.8°C 96% 1.3 mph NE2.1 kmh NE 2.5 mph4.0 kmh 29.97 in1014.9 mb 0.00 in0.0 mm 0.00 in0.0 mm 0.00 in0.0 mm
07:37 AM 72.4°F22.4°C 71.2°F21.8°C 96% 1.3 mph NE2.1 kmh NE 2.0 mph3.2 kmh 29.97 in1014.9 mb 0.00 in0.0 mm 0.00 in0.0 mm 0.00 in0.0 mm
07:42 AM 72.6°F22.6°C 71.4°F21.9°C 96% Calm Calm 2.0 mph3.2 kmh 29.97 in1014.9 mb 0.00 in0.0 mm 0.00 in0.0 mm 0.00 in0.0 mm
07:47 AM 72.7°F22.6°C 71.5°F21.9°C 96% Calm Calm 1.0 mph1.6 kmh 29.97 in1014.9 mb 0.00 in0.0 mm 0.00 in0.0 mm 0.00 in0.0 mm
07:52 AM 72.8°F22.7°C 71.6°F22.0°C 96% Calm Calm 1.0 mph1.6 kmh 29.97 in1014.9 mb 0.00 in0.0 mm 0.00 in0.0 mm 0.00 in0.0 mm
07:57 AM 72.8°F22.7°C 71.6°F22.0°C 96% Calm Calm 1.3 mph2.1 kmh 29.97 in1014.9 mb 0.00 in0.0 mm 0.00 in0.0 mm 0.00 in0.0 mm
08:02 AM 72.9°F22.7°C 71.7°F22.1°C 96% Calm Calm 1.3 mph2.1 kmh 29.97 in1014.9 mb 0.00 in0.0 mm 0.00 in0.0 mm 0.00 in0.0 mm
08:07 AM 73.1°F22.8°C 71.9°F22.2°C 96% 1.3 mph ENE2.1 kmh ENE 1.3 mph2.1 kmh 29.97 in1014.9 mb 0.00 in0.0 mm 0.00 in0.0 mm 0.00 in0.0 mm
08:12 AM 73.3°F22.9°C 72.1°F22.3°C 96% 1.3 mph ENE2.1 kmh ENE 1.3 mph2.1 kmh 29.97 in1014.9 mb 0.00 in0.0 mm 0.00 in0.0 mm 0.00 in0.0 mm
08:17 AM 73.4°F23.0°C 72.2°F22.3°C 96% 1.9 mph NE3.1 kmh NE 2.5 mph4.0 kmh 29.97 in1014.9 mb 0.00 in0.0 mm 0.00 in0.0 mm 0.00 in0.0 mm
08:22 AM 73.8°F23.2°C 72.6°F22.6°C 96% Calm Calm 2.5 mph4.0 kmh 29.97 in1014.9 mb 0.00 in0.0 mm 0.00 in0.0 mm 0.00 in0.0 mm
08:27 AM 74.0°F23.3°C 72.8°F22.7°C 96% Calm Calm 2.0 mph3.2 kmh 29.97 in1014.9 mb 0.00 in0.0 mm 0.00 in0.0 mm 0.00 in0.0 mm
08:32 AM 74.2°F23.4°C 73.0°F22.8°C 96% 2.0 mph NE3.2 kmh NE 2.5 mph4.0 kmh 29.98 in1015.2 mb 0.00 in0.0 mm 0.00 in0.0 mm 0.00 in0.0 mm
08:37 AM 74.2°F23.4°C 72.6°F22.6°C 95% 1.3 mph NE2.1 kmh NE 2.5 mph4.0 kmh 29.98 in1015.2 mb 0.00 in0.0 mm 0.00 in0.0 mm 0.00 in0.0 mm
08:42 AM 74.4°F23.6°C 72.8°F22.7°C 95% Calm Calm 2.5 mph4.0 kmh 29.98 in1015.2 mb 0.00 in0.0 mm 0.00 in0.0 mm 0.00 in0.0 mm
08:47 AM 74.5°F23.6°C 72.9°F22.7°C 95% 1.3 mph SE2.1 kmh SE 2.5 mph4.0 kmh 29.98 in1015.2 mb 0.00 in0.0 mm 0.00 in0.0 mm 0.00 in0.0 mm
08:52 AM 74.7°F23.7°C 72.8°F22.7°C 94% 1.3 mph SE2.1 kmh SE 2.5 mph4.0 kmh 29.98 in1015.2 mb 0.00 in0.0 mm 0.00 in0.0 mm 0.00 in0.0 mm
08:57 AM 74.8°F23.8°C 72.9°F22.7°C 94% 1.3 mph SE2.1 kmh SE 2.0 mph3.2 kmh 29.98 in1015.2 mb 0.00 in0.0 mm 0.00 in0.0 mm 0.00 in0.0 mm
09:03 AM 74.9°F23.8°C 73.0°F22.8°C 94% 1.5 mph SE2.4 kmh SE 2.5 mph4.0 kmh 29.98 in1015.2 mb 0.00 in0.0 mm 0.00 in0.0 mm 0.00 in0.0 mm
09:08 AM 75.0°F23.9°C 73.1°F22.8°C 94% 2.2 mph S3.5 kmh S 3.8 mph6.1 kmh 29.98 in1015.2 mb 0.00 in0.0 mm 0.00 in0.0 mm 0.00 in0.0 mm
09:13 AM 75.1°F23.9°C 73.2°F22.9°C 94% 1.3 mph SSW2.1 kmh SSW 3.8 mph6.1 kmh 29.97 in1014.9 mb 0.00 in0.0 mm 0.00 in0.0 mm 0.00 in0.0 mm
09:18 AM 75.1°F23.9°C 72.9°F22.7°C 93% 1.5 mph SSW2.4 kmh SSW 3.8 mph6.1 kmh 29.97 in1014.9 mb 0.00 in0.0 mm 0.00 in0.0 mm 0.00 in0.0 mm
09:23 AM 75.4°F24.1°C 73.2°F22.9°C 93% 1.4 mph SE2.3 kmh SE 3.0 mph4.8 kmh 29.97 in1014.9 mb 0.00 in0.0 mm 0.00 in0.0 mm 0.00 in0.0 mm
09:28 AM 75.6°F24.2°C 73.4°F23.0°C 93% 1.3 mph SE2.1 kmh SE 3.0 mph4.8 kmh 29.97 in1014.9 mb 0.00 in0.0 mm 0.00 in0.0 mm 0.00 in0.0 mm
09:33 AM 75.7°F24.3°C 73.2°F22.9°C 92% 1.3 mph SSE2.1 kmh SSE 2.5 mph4.0 kmh 29.97 in1014.9 mb 0.00 in0.0 mm 0.00 in0.0 mm 0.00 in0.0 mm
09:38 AM 75.8°F24.3°C 73.0°F22.8°C 91% 3.2 mph SSE5.1 kmh SSE 5.0 mph8.0 kmh 29.97 in1014.9 mb 0.00 in0.0 mm 0.00 in0.0 mm 0.00 in0.0 mm
09:43 AM 75.9°F24.4°C 73.4°F23.0°C 92% 2.3 mph SSE3.7 kmh SSE 5.0 mph8.0 kmh 29.97 in1014.9 mb 0.00 in0.0 mm 0.00 in0.0 mm 0.00 in0.0 mm
09:48 AM 76.1°F24.5°C 72.9°F22.7°C 90% 2.8 mph SSE4.5 kmh SSE 6.3 mph10.1 kmh 29.97 in1014.9 mb 0.00 in0.0 mm 0.00 in0.0 mm 0.00 in0.0 mm
09:53 AM 77.0°F25.0°C 74.2°F23.4°C 91% 3.1 mph S5.0 kmh S 6.3 mph10.1 kmh 29.97 in1014.9 mb 0.00 in0.0 mm 0.00 in0.0 mm 0.00 in0.0 mm
09:58 AM 77.9°F25.5°C 74.1°F23.4°C 88% 2.5 mph SSE4.0 kmh SSE 6.3 mph10.1 kmh 29.97 in1014.9 mb 0.00 in0.0 mm 0.00 in0.0 mm 0.00 in0.0 mm
10:03 AM 78.3°F25.7°C 74.8°F23.8°C 89% 1.9 mph SSE3.1 kmh SSE 5.0 mph8.0 kmh 29.97 in1014.9 mb 0.00 in0.0 mm 0.00 in0.0 mm 0.00 in0.0 mm
10:08 AM 79.1°F26.2°C 74.6°F23.7°C 86% Calm Calm 4.0 mph6.4 kmh 29.97 in1014.9 mb 0.00 in0.0 mm 0.00 in0.0 mm 0.00 in0.0 mm
10:13 AM 79.5°F26.4°C 74.6°F23.7°C 85% 2.1 mph SE3.4 kmh SE 4.0 mph6.4 kmh 29.97 in1014.9 mb 0.00 in0.0 mm 0.00 in0.0 mm 0.00 in0.0 mm
10:18 AM 79.2°F26.2°C 74.0°F23.3°C 84% 1.8 mph ESE2.9 kmh ESE 5.0 mph8.0 kmh 29.97 in1014.9 mb 0.00 in0.0 mm 0.00 in0.0 mm 0.00 in0.0 mm
10:23 AM 78.8°F26.0°C 73.3°F22.9°C 83% 1.6 mph S2.6 kmh S 5.0 mph8.0 kmh 29.97 in1014.9 mb 0.00 in0.0 mm 0.00 in0.0 mm 0.00 in0.0 mm
10:28 AM 78.5°F25.8°C 72.9°F22.7°C 83% 1.4 mph E2.3 kmh E 3.0 mph4.8 kmh 29.97 in1014.9 mb 0.00 in0.0 mm 0.00 in0.0 mm 0.00 in0.0 mm
10:33 AM 79.2°F26.2°C 74.3°F23.5°C 85% Calm Calm 3.0 mph4.8 kmh 29.96 in1014.6 mb 0.00 in0.0 mm 0.00 in0.0 mm 0.00 in0.0 mm
10:38 AM 80.5°F26.9°C 74.9°F23.8°C 83% Calm Calm 2.0 mph3.2 kmh 29.96 in1014.6 mb 0.00 in0.0 mm 0.00 in0.0 mm 0.00 in0.0 mm
10:43 AM 81.7°F27.6°C 74.7°F23.7°C 79% Calm Calm 2.0 mph3.2 kmh 29.96 in1014.6 mb 0.00 in0.0 mm 0.00 in0.0 mm 0.00 in0.0 mm
10:49 AM 82.5°F28.1°C 74.3°F23.5°C 76% 2.3 mph WNW3.7 kmh WNW 3.8 mph6.1 kmh 29.96 in1014.6 mb 0.00 in0.0 mm 0.00 in0.0 mm 0.00 in0.0 mm
10:54 AM 81.7°F27.6°C 74.5°F23.6°C 79% 1.3 mph WNW2.1 kmh WNW 3.8 mph6.1 kmh 29.96 in1014.6 mb 0.00 in0.0 mm 0.00 in0.0 mm 0.00 in0.0 mm
10:59 AM 80.9°F27.2°C 73.5°F23.1°C 78% 1.8 mph NW2.9 kmh NW 3.0 mph4.8 kmh 29.97 in1014.9 mb 0.00 in0.0 mm 0.00 in0.0 mm 0.00 in0.0 mm
11:04 AM 80.6°F27.0°C 74.0°F23.3°C 80% 1.3 mph SE2.1 kmh SE 3.0 mph4.8 kmh 29.97 in1014.9 mb 0.00 in0.0 mm 0.00 in0.0 mm 0.00 in0.0 mm
11:09 AM 80.1°F26.7°C 73.8°F23.2°C 81% 1.3 mph SE2.1 kmh SE 3.0 mph4.8 kmh 29.97 in1014.9 mb 0.00 in0.0 mm 0.00 in0.0 mm 0.00 in0.0 mm
11:14 AM 79.3°F26.3°C 73.0°F22.8°C 81% 1.5 mph ESE2.4 kmh ESE 3.0 mph4.8 kmh 29.97 in1014.9 mb 0.00 in0.0 mm 0.00 in0.0 mm 0.00 in0.0 mm
11:19 AM 78.8°F26.0°C 73.3°F22.9°C 83% Calm Calm 2.5 mph4.0 kmh 29.96 in1014.6 mb 0.00 in0.0 mm 0.00 in0.0 mm 0.00 in0.0 mm
11:24 AM 78.7°F25.9°C 73.9°F23.3°C 85% Calm Calm 2.0 mph3.2 kmh 29.96 in1014.6 mb 0.00 in0.0 mm 0.00 in0.0 mm 0.00 in0.0 mm
11:29 AM 79.5°F26.4°C 72.8°F22.7°C 80% 1.8 mph NE2.9 kmh NE 2.5 mph4.0 kmh 29.96 in1014.6 mb 0.00 in0.0 mm 0.00 in0.0 mm 0.00 in0.0 mm
11:34 AM 80.3°F26.8°C 73.3°F22.9°C 79% 1.8 mph SSE2.9 kmh SSE 2.5 mph4.0 kmh 29.96 in1014.6 mb 0.00 in0.0 mm 0.00 in0.0 mm 0.00 in0.0 mm
11:39 AM 80.4°F26.9°C 73.4°F23.0°C 79% 1.3 mph E2.1 kmh E 3.8 mph6.1 kmh 29.96 in1014.6 mb 0.00 in0.0 mm 0.00 in0.0 mm 0.00 in0.0 mm
11:44 AM 80.7°F27.1°C 72.8°F22.7°C 77% 1.3 mph SE2.1 kmh SE 3.8 mph6.1 kmh 29.96 in1014.6 mb 0.00 in0.0 mm 0.00 in0.0 mm 0.00 in0.0 mm
11:49 AM 81.1°F27.3°C 73.2°F22.9°C 77% 1.7 mph NE2.7 kmh NE 3.0 mph4.8 kmh 29.96 in1014.6 mb 0.00 in0.0 mm 0.00 in0.0 mm 0.00 in0.0 mm
11:54 AM 81.5°F27.5°C 73.2°F22.9°C 76% 1.3 mph NE2.1 kmh NE 2.5 mph4.0 kmh 29.96 in1014.6 mb 0.00 in0.0 mm 0.00 in0.0 mm 0.00 in0.0 mm
11:59 AM 82.1°F27.8°C 74.7°F23.7°C 78% 1.9 mph ENE3.1 kmh ENE 3.8 mph6.1 kmh 29.96 in1014.6 mb 0.00 in0.0 mm 0.00 in0.0 mm 0.00 in0.0 mm
12:04 PM 82.2°F27.9°C 73.3°F22.9°C 74% 2.4 mph S3.9 kmh S 5.0 mph8.0 kmh 29.96 in1014.6 mb 0.00 in0.0 mm 0.00 in0.0 mm 0.00 in0.0 mm
12:09 PM 82.6°F28.1°C 74.8°F23.8°C 77% Calm Calm 5.0 mph8.0 kmh 29.96 in1014.6 mb 0.00 in0.0 mm 0.00 in0.0 mm 0.00 in0.0 mm
12:14 PM 82.8°F28.2°C 73.1°F22.8°C 72% 1.5 mph E2.4 kmh E 5.0 mph8.0 kmh 29.96 in1014.6 mb 0.00 in0.0 mm 0.00 in0.0 mm 0.00 in0.0 mm
12:19 PM 83.5°F28.6°C 74.1°F23.4°C 73% 1.4 mph WSW2.3 kmh WSW 5.0 mph8.0 kmh 29.96 in1014.6 mb 0.00 in0.0 mm 0.00 in0.0 mm 0.00 in0.0 mm
12:24 PM 84.4°F29.1°C 75.0°F23.9°C 73% 3.4 mph S5.5 kmh S 6.3 mph10.1 kmh 29.96 in1014.6 mb 0.00 in0.0 mm 0.00 in0.0 mm 0.00 in0.0 mm
12:29 PM 84.8°F29.3°C 74.2°F23.4°C 70% 1.4 mph SSE2.3 kmh SSE 6.3 mph10.1 kmh 29.96 in1014.6 mb 0.00 in0.0 mm 0.00 in0.0 mm 0.00 in0.0 mm
12:34 PM 85.3°F29.6°C 74.2°F23.4°C 69% 1.8 mph E2.9 kmh E 5.0 mph8.0 kmh 29.96 in1014.6 mb 0.00 in0.0 mm 0.00 in0.0 mm 0.00 in0.0 mm
12:39 PM 85.3°F29.6°C 73.8°F23.2°C 68% 2.8 mph SE4.5 kmh SE 6.3 mph10.1 kmh 29.96 in1014.6 mb 0.00 in0.0 mm 0.00 in0.0 mm 0.00 in0.0 mm
12:44 PM 85.6°F29.8°C 74.9°F23.8°C 70% 1.7 mph SE2.7 kmh SE 6.3 mph10.1 kmh 29.96 in1014.6 mb 0.00 in0.0 mm 0.00 in0.0 mm 0.00 in0.0 mm
12:49 PM 85.9°F29.9°C 72.3°F22.4°C 64% 2.3 mph SE3.7 kmh SE 5.0 mph8.0 kmh 29.95 in1014.2 mb 0.00 in0.0 mm 0.00 in0.0 mm 0.00 in0.0 mm
12:54 PM 86.0°F30.0°C 72.2°F22.3°C 63% 2.6 mph SSE4.2 kmh SSE 5.0 mph8.0 kmh 29.95 in1014.2 mb 0.00 in0.0 mm 0.00 in0.0 mm 0.00 in0.0 mm
12:59 PM 86.4°F30.2°C 74.0°F23.3°C 66% Calm Calm 3.8 mph6.1 kmh 29.95 in1014.2 mb 0.00 in0.0 mm 0.00 in0.0 mm 0.00 in0.0 mm
01:04 PM 86.6°F30.3°C 73.7°F23.2°C 65% 1.3 mph E2.1 kmh E 3.8 mph6.1 kmh 29.95 in1014.2 mb 0.00 in0.0 mm 0.00 in0.0 mm 0.00 in0.0 mm
01:09 PM 86.7°F30.4°C 75.3°F24.1°C 69% 2.0 mph SSE3.2 kmh SSE 3.8 mph6.1 kmh 29.95 in1014.2 mb 0.00 in0.0 mm 0.00 in0.0 mm 0.00 in0.0 mm
01:14 PM 86.1°F30.1°C 74.7°F23.7°C 69% 1.9 mph SE3.1 kmh SE 5.0 mph8.0 kmh 29.95 in1014.2 mb 0.00 in0.0 mm 0.00 in0.0 mm 0.00 in0.0 mm
01:19 PM 85.5°F29.7°C 72.8°F22.7°C 66% 3.0 mph SE4.8 kmh SE 6.3 mph10.1 kmh 29.95 in1014.2 mb 0.00 in0.0 mm 0.00 in0.0 mm 0.00 in0.0 mm
01:24 PM 85.9°F29.9°C 76.2°F24.6°C 73% 2.4 mph SW3.9 kmh SW 6.3 mph10.1 kmh 29.94 in1013.9 mb 0.00 in0.0 mm 0.00 in0.0 mm 0.00 in0.0 mm
01:29 PM 86.4°F30.2°C 75.3°F24.1°C 69% 2.0 mph S3.2 kmh S 7.5 mph12.1 kmh 29.94 in1013.9 mb 0.00 in0.0 mm 0.00 in0.0 mm 0.00 in0.0 mm
01:34 PM 86.1°F30.1°C 74.1°F23.4°C 67% 4.0 mph S6.4 kmh S 8.8 mph14.2 kmh 29.94 in1013.9 mb 0.00 in0.0 mm 0.00 in0.0 mm 0.00 in0.0 mm
01:39 PM 86.5°F30.3°C 74.1°F23.4°C 66% 1.8 mph SW2.9 kmh SW 8.8 mph14.2 kmh 29.94 in1013.9 mb 0.00 in0.0 mm 0.00 in0.0 mm 0.00 in0.0 mm
01:44 PM 86.5°F30.3°C 73.8°F23.2°C 66% 2.7 mph S4.3 kmh S 7.0 mph11.3 kmh 29.94 in1013.9 mb 0.00 in0.0 mm 0.00 in0.0 mm 0.00 in0.0 mm
01:49 PM 86.2°F30.1°C 73.3°F22.9°C 65% 5.2 mph SSE8.4 kmh SSE 10.0 mph16.1 kmh 29.94 in1013.9 mb 0.00 in0.0 mm 0.00 in0.0 mm 0.00 in0.0 mm
01:54 PM 86.0°F30.0°C 73.6°F23.1°C 66% 2.1 mph SE3.4 kmh SE 10.0 mph16.1 kmh 29.94 in1013.9 mb 0.00 in0.0 mm 0.00 in0.0 mm 0.00 in0.0 mm
01:59 PM 86.5°F30.3°C 75.8°F24.3°C 70% 1.8 mph S2.9 kmh S 8.0 mph12.9 kmh 29.94 in1013.9 mb 0.00 in0.0 mm 0.00 in0.0 mm 0.00 in0.0 mm
02:04 PM 87.0°F30.6°C 75.0°F23.9°C 67% 2.0 mph SSE3.2 kmh SSE 8.0 mph12.9 kmh 29.93 in1013.5 mb 0.00 in0.0 mm 0.00 in0.0 mm 0.00 in0.0 mm
02:09 PM 86.9°F30.5°C 73.5°F23.1°C 64% 2.6 mph SSE4.2 kmh SSE 7.5 mph12.1 kmh 29.93 in1013.5 mb 0.00 in0.0 mm 0.00 in0.0 mm 0.00 in0.0 mm
02:14 PM 86.9°F30.5°C 74.5°F23.6°C 66% 3.5 mph SSE5.6 kmh SSE 7.5 mph12.1 kmh 29.93 in1013.5 mb 0.00 in0.0 mm 0.00 in0.0 mm 0.00 in0.0 mm
02:19 PM 87.5°F30.8°C 74.1°F23.4°C 64% 1.9 mph SSW3.1 kmh SSW 7.0 mph11.3 kmh 29.93 in1013.5 mb 0.00 in0.0 mm 0.00 in0.0 mm 0.00 in0.0 mm
02:24 PM 87.9°F31.1°C 73.5°F23.1°C 62% 1.3 mph S2.1 kmh S 6.0 mph9.7 kmh 29.93 in1013.5 mb 0.00 in0.0 mm 0.00 in0.0 mm 0.00 in0.0 mm
02:29 PM 87.5°F30.8°C 73.6°F23.1°C 63% 1.3 mph W2.1 kmh W 5.0 mph8.0 kmh 29.93 in1013.5 mb 0.00 in0.0 mm 0.00 in0.0 mm 0.00 in0.0 mm
02:34 PM 86.8°F30.4°C 74.4°F23.6°C 66% 2.0 mph S3.2 kmh S 4.0 mph6.4 kmh 29.93 in1013.5 mb 0.00 in0.0 mm 0.00 in0.0 mm 0.00 in0.0 mm
02:39 PM 86.9°F30.5°C 73.5°F23.1°C 64% 3.7 mph SSE6.0 kmh SSE 6.3 mph10.1 kmh 29.93 in1013.5 mb 0.00 in0.0 mm 0.00 in0.0 mm 0.00 in0.0 mm
02:44 PM 86.8°F30.4°C 73.0°F22.8°C 63% 3.2 mph S5.1 kmh S 6.3 mph10.1 kmh 29.93 in1013.5 mb 0.00 in0.0 mm 0.00 in0.0 mm 0.00 in0.0 mm
02:49 PM 87.4°F30.8°C 73.1°F22.8°C 62% 4.5 mph SSE7.2 kmh SSE 10.0 mph16.1 kmh 29.93 in1013.5 mb 0.00 in0.0 mm 0.00 in0.0 mm 0.00 in0.0 mm
02:54 PM 88.0°F31.1°C 76.0°F24.4°C 67% 2.4 mph SSE3.9 kmh SSE 10.0 mph16.1 kmh 29.92 in1013.2 mb 0.00 in0.0 mm 0.00 in0.0 mm 0.00 in0.0 mm
02:59 PM 88.4°F31.3°C 74.7°F23.7°C 64% 2.0 mph S3.2 kmh S 8.8 mph14.2 kmh 29.92 in1013.2 mb 0.00 in0.0 mm 0.00 in0.0 mm 0.00 in0.0 mm
03:04 PM 88.7°F31.5°C 75.4°F24.1°C 65% 4.8 mph S7.7 kmh S 12.5 mph20.1 kmh 29.92 in1013.2 mb 0.00 in0.0 mm 0.00 in0.0 mm 0.00 in0.0 mm
03:09 PM 88.6°F31.4°C 72.2°F22.3°C 58% 2.6 mph S4.2 kmh S 12.5 mph20.1 kmh 29.92 in1013.2 mb 0.00 in0.0 mm 0.00 in0.0 mm 0.00 in0.0 mm
03:14 PM 88.1°F31.2°C 73.2°F22.9°C 61% 2.4 mph SSE3.9 kmh SSE 10.0 mph16.1 kmh 29.93 in1013.5 mb 0.00 in0.0 mm 0.00 in0.0 mm 0.00 in0.0 mm
03:19 PM 86.3°F30.2°C 75.8°F24.3°C 71% 3.6 mph NNW5.8 kmh NNW 10.0 mph16.1 kmh 29.93 in1013.5 mb 0.01 in0.3 mm 0.12 in3.0 mm 0.01 in0.3 mm
03:24 PM 81.1°F27.3°C 73.0°F22.8°C 76% 8.5 mph N13.7 kmh N 15.0 mph24.1 kmh 29.93 in1013.5 mb 0.05 in1.3 mm 0.48 in12.2 mm 0.05 in1.3 mm
03:29 PM 78.3°F25.7°C 72.8°F22.7°C 83% 7.0 mph NNW11.3 kmh NNW 15.0 mph24.1 kmh 29.93 in1013.5 mb 0.06 in1.5 mm 0.12 in3.0 mm 0.06 in1.5 mm
03:35 PM 77.0°F25.0°C 72.9°F22.7°C 87% 1.8 mph N2.9 kmh N 11.0 mph17.7 kmh 29.93 in1013.5 mb 0.07 in1.8 mm 0.10 in2.5 mm 0.07 in1.8 mm
03:40 PM 76.5°F24.7°C 73.7°F23.2°C 91% 2.0 mph NNE3.2 kmh NNE 11.0 mph17.7 kmh 29.93 in1013.5 mb 0.15 in3.8 mm 0.96 in24.4 mm 0.15 in3.8 mm
03:45 PM 76.8°F24.9°C 74.3°F23.5°C 92% 2.5 mph NE4.0 kmh NE 8.0 mph12.9 kmh 29.93 in1013.5 mb 0.15 in3.8 mm 0.00 in0.0 mm 0.15 in3.8 mm
03:50 PM 78.1°F25.6°C 76.5°F24.7°C 95% 3.0 mph NNW4.8 kmh NNW 6.3 mph10.1 kmh 29.93 in1013.5 mb 0.15 in3.8 mm 0.00 in0.0 mm 0.15 in3.8 mm
03:55 PM 79.2°F26.2°C 75.4°F24.1°C 88% 5.0 mph N8.0 kmh N 10.0 mph16.1 kmh 29.93 in1013.5 mb 0.15 in3.8 mm 0.00 in0.0 mm 0.15 in3.8 mm
04:00 PM 79.6°F26.4°C 75.7°F24.3°C 88% 2.3 mph N3.7 kmh N 10.0 mph16.1 kmh 29.93 in1013.5 mb 0.15 in3.8 mm 0.00 in0.0 mm 0.15 in3.8 mm
04:05 PM 79.0°F26.1°C 73.8°F23.2°C 84% 4.6 mph N7.4 kmh N 12.5 mph20.1 kmh 29.93 in1013.5 mb 0.15 in3.8 mm 0.00 in0.0 mm 0.15 in3.8 mm
04:10 PM 78.1°F25.6°C 73.3°F22.9°C 85% 3.7 mph N6.0 kmh N 12.5 mph20.1 kmh 29.93 in1013.5 mb 0.15 in3.8 mm 0.00 in0.0 mm 0.15 in3.8 mm
04:15 PM 77.5°F25.3°C 73.3°F22.9°C 87% 2.4 mph NNE3.9 kmh NNE 12.5 mph20.1 kmh 29.93 in1013.5 mb 0.16 in4.1 mm 0.12 in3.0 mm 0.16 in4.1 mm
04:20 PM 77.1°F25.1°C 73.9°F23.3°C 90% 1.3 mph ENE2.1 kmh ENE 11.0 mph17.7 kmh 29.93 in1013.5 mb 0.16 in4.1 mm 0.00 in0.0 mm 0.17 in4.3 mm
04:25 PM 77.1°F25.1°C 74.3°F23.5°C 91% Calm Calm 9.0 mph14.5 kmh 29.92 in1013.2 mb 0.12 in3.0 mm 0.00 in0.0 mm 0.17 in4.3 mm
04:30 PM 77.4°F25.2°C 74.6°F23.7°C 91% 1.9 mph ENE3.1 kmh ENE 5.0 mph8.0 kmh 29.92 in1013.2 mb 0.11 in2.8 mm 0.00 in0.0 mm 0.17 in4.3 mm
04:35 PM 77.8°F25.4°C 74.9°F23.8°C 91% 2.2 mph NE3.5 kmh NE 5.0 mph8.0 kmh 29.92 in1013.2 mb 0.09 in2.3 mm 0.00 in0.0 mm 0.17 in4.3 mm
04:40 PM 78.5°F25.8°C 75.3°F24.1°C 90% 1.8 mph NE2.9 kmh NE 6.3 mph10.1 kmh 29.92 in1013.2 mb 0.02 in0.5 mm 0.00 in0.0 mm 0.17 in4.3 mm
04:45 PM 79.3°F26.3°C 75.8°F24.3°C 89% Calm Calm 6.3 mph10.1 kmh 29.92 in1013.2 mb 0.02 in0.5 mm 0.00 in0.0 mm 0.17 in4.3 mm
04:50 PM 79.9°F26.6°C 75.7°F24.3°C 87% 1.3 mph ENE2.1 kmh ENE 4.0 mph6.4 kmh 29.92 in1013.2 mb 0.02 in0.5 mm 0.00 in0.0 mm 0.17 in4.3 mm
04:55 PM 80.3°F26.8°C 75.8°F24.3°C 86% 1.9 mph NE3.1 kmh NE 4.0 mph6.4 kmh 29.92 in1013.2 mb 0.02 in0.5 mm 0.00 in0.0 mm 0.17 in4.3 mm
05:00 PM 80.6°F27.0°C 75.7°F24.3°C 85% 2.5 mph NE4.0 kmh NE 5.0 mph8.0 kmh 29.92 in1013.2 mb 0.02 in0.5 mm 0.00 in0.0 mm 0.17 in4.3 mm
05:05 PM 80.6°F27.0°C 75.7°F24.3°C 85% 1.5 mph NE2.4 kmh NE 5.0 mph8.0 kmh 29.92 in1013.2 mb 0.02 in0.5 mm 0.00 in0.0 mm 0.17 in4.3 mm
05:10 PM 80.6°F27.0°C 76.4°F24.7°C 87% 1.3 mph SSE2.1 kmh SSE 3.8 mph6.1 kmh 29.92 in1013.2 mb 0.02 in0.5 mm 0.00 in0.0 mm 0.17 in4.3 mm
05:15 PM 80.2°F26.8°C 76.3°F24.6°C 88% Calm Calm 3.0 mph4.8 kmh 29.91 in1012.9 mb 0.01 in0.3 mm 0.00 in0.0 mm 0.17 in4.3 mm
05:20 PM 79.7°F26.5°C 75.5°F24.2°C 87% 1.6 mph ENE2.6 kmh ENE 3.8 mph6.1 kmh 29.92 in1013.2 mb 0.00 in0.0 mm 0.00 in0.0 mm 0.17 in4.3 mm
05:25 PM 79.3°F26.3°C 75.1°F23.9°C 87% 1.3 mph SE2.1 kmh SE 3.8 mph6.1 kmh 29.92 in1013.2 mb 0.00 in0.0 mm 0.00 in0.0 mm 0.17 in4.3 mm
05:30 PM 78.9°F26.1°C 75.1°F23.9°C 88% Calm Calm 3.0 mph4.8 kmh 29.92 in1013.2 mb 0.00 in0.0 mm 0.00 in0.0 mm 0.17 in4.3 mm
05:35 PM 78.4°F25.8°C 75.2°F24.0°C 90% 1.3 mph SSW2.1 kmh SSW 3.0 mph4.8 kmh 29.92 in1013.2 mb 0.00 in0.0 mm 0.00 in0.0 mm 0.17 in4.3 mm
05:40 PM 77.7°F25.4°C 74.2°F23.4°C 89% 3.5 mph SSE5.6 kmh SSE 6.3 mph10.1 kmh 29.93 in1013.5 mb 0.05 in1.3 mm 0.60 in15.2 mm 0.22 in5.6 mm
05:45 PM 77.1°F25.1°C 73.9°F23.3°C 90% 2.3 mph ENE3.7 kmh ENE 6.3 mph10.1 kmh 29.92 in1013.2 mb 0.09 in2.3 mm 0.48 in12.2 mm 0.26 in6.6 mm
05:50 PM 76.7°F24.8°C 73.9°F23.3°C 91% Calm Calm 6.0 mph9.7 kmh 29.92 in1013.2 mb 0.09 in2.3 mm 0.00 in0.0 mm 0.26 in6.6 mm
05:55 PM 76.8°F24.9°C 74.6°F23.7°C 93% 1.3 mph NE2.1 kmh NE 6.0 mph9.7 kmh 29.92 in1013.2 mb 0.09 in2.3 mm 0.00 in0.0 mm 0.26 in6.6 mm
06:00 PM 76.8°F24.9°C 74.3°F23.5°C 92% 1.3 mph NW2.1 kmh NW 3.0 mph4.8 kmh 29.91 in1012.9 mb 0.09 in2.3 mm 0.00 in0.0 mm 0.26 in6.6 mm
06:05 PM 77.1°F25.1°C 74.9°F23.8°C 93% 1.3 mph N2.1 kmh N 2.5 mph4.0 kmh 29.92 in1013.2 mb 0.09 in2.3 mm 0.00 in0.0 mm 0.26 in6.6 mm
06:10 PM 77.2°F25.1°C 74.7°F23.7°C 92% Calm Calm 2.5 mph4.0 kmh 29.91 in1012.9 mb 0.09 in2.3 mm 0.00 in0.0 mm 0.26 in6.6 mm
06:15 PM 77.7°F25.4°C 75.2°F24.0°C 92% Calm Calm 2.5 mph4.0 kmh 29.91 in1012.9 mb 0.09 in2.3 mm 0.00 in0.0 mm 0.26 in6.6 mm
06:20 PM 78.4°F25.8°C 75.5°F24.2°C 91% 1.3 mph WNW2.1 kmh WNW 2.0 mph3.2 kmh 29.91 in1012.9 mb 0.09 in2.3 mm 0.00 in0.0 mm 0.26 in6.6 mm
06:25 PM 78.9°F26.1°C 76.0°F24.4°C 91% 1.3 mph ENE2.1 kmh ENE 2.5 mph4.0 kmh 29.91 in1012.9 mb 0.09 in2.3 mm 0.00 in0.0 mm 0.26 in6.6 mm
06:30 PM 79.2°F26.2°C 75.4°F24.1°C 88% 1.5 mph NE2.4 kmh NE 3.8 mph6.1 kmh 29.92 in1013.2 mb 0.09 in2.3 mm 0.00 in0.0 mm 0.26 in6.6 mm
06:35 PM 79.4°F26.3°C 75.9°F24.4°C 89% Calm Calm 3.8 mph6.1 kmh 29.92 in1013.2 mb 0.08 in2.0 mm 0.00 in0.0 mm 0.26 in6.6 mm
06:40 PM 79.5°F26.4°C 76.3°F24.6°C 90% 1.9 mph NE3.1 kmh NE 3.8 mph6.1 kmh 29.92 in1013.2 mb 0.03 in0.8 mm 0.00 in0.0 mm 0.26 in6.6 mm
06:45 PM 79.0°F26.1°C 75.5°F24.2°C 89% 4.7 mph NE7.6 kmh NE 10.0 mph16.1 kmh 29.92 in1013.2 mb 0.00 in0.0 mm 0.00 in0.0 mm 0.26 in6.6 mm
06:50 PM 78.5°F25.8°C 75.3°F24.1°C 90% 1.3 mph E2.1 kmh E 10.0 mph16.1 kmh 29.92 in1013.2 mb 0.00 in0.0 mm 0.00 in0.0 mm 0.26 in6.6 mm
06:55 PM 78.2°F25.7°C 75.0°F23.9°C 90% 1.3 mph SW2.1 kmh SW 7.0 mph11.3 kmh 29.92 in1013.2 mb 0.00 in0.0 mm 0.00 in0.0 mm 0.26 in6.6 mm
07:00 PM 78.2°F25.7°C 75.0°F23.9°C 90% 1.7 mph NE2.7 kmh NE 7.0 mph11.3 kmh 29.91 in1012.9 mb 0.00 in0.0 mm 0.00 in0.0 mm 0.26 in6.6 mm
07:05 PM 78.1°F25.6°C 74.9°F23.8°C 90% 1.7 mph NE2.7 kmh NE 8.8 mph14.2 kmh 29.92 in1013.2 mb 0.00 in0.0 mm 0.00 in0.0 mm 0.26 in6.6 mm
07:10 PM 78.0°F25.6°C 75.1°F23.9°C 91% 1.3 mph NNE2.1 kmh NNE 8.8 mph14.2 kmh 29.92 in1013.2 mb 0.00 in0.0 mm 0.00 in0.0 mm 0.26 in6.6 mm
07:15 PM 77.8°F25.4°C 74.3°F23.5°C 89% 2.1 mph NNE3.4 kmh NNE 6.0 mph9.7 kmh 29.92 in1013.2 mb 0.00 in0.0 mm 0.00 in0.0 mm 0.26 in6.6 mm
07:20 PM 77.7°F25.4°C 74.5°F23.6°C 90% 3.2 mph NE5.1 kmh NE 6.3 mph10.1 kmh 29.92 in1013.2 mb 0.00 in0.0 mm 0.00 in0.0 mm 0.26 in6.6 mm
07:25 PM 77.6°F25.3°C 74.7°F23.7°C 91% Calm Calm 6.3 mph10.1 kmh 29.92 in1013.2 mb 0.00 in0.0 mm 0.00 in0.0 mm 0.26 in6.6 mm
07:30 PM 77.4°F25.2°C 74.6°F23.7°C 91% 2.3 mph NNE3.7 kmh NNE 6.3 mph10.1 kmh 29.92 in1013.2 mb 0.00 in0.0 mm 0.00 in0.0 mm 0.26 in6.6 mm
07:35 PM 77.2°F25.1°C 74.0°F23.3°C 90% 2.8 mph NE4.5 kmh NE 5.0 mph8.0 kmh 29.92 in1013.2 mb 0.00 in0.0 mm 0.00 in0.0 mm 0.26 in6.6 mm
07:40 PM 77.0°F25.0°C 73.2°F22.9°C 88% 3.2 mph NE5.1 kmh NE 6.3 mph10.1 kmh 29.92 in1013.2 mb 0.00 in0.0 mm 0.00 in0.0 mm 0.26 in6.6 mm
07:45 PM 76.7°F24.8°C 73.5°F23.1°C 90% 1.8 mph WNW2.9 kmh WNW 6.3 mph10.1 kmh 29.92 in1013.2 mb 0.00 in0.0 mm 0.00 in0.0 mm 0.26 in6.6 mm
07:50 PM 76.3°F24.6°C 73.5°F23.1°C 91% 1.9 mph SE3.1 kmh SE 4.0 mph6.4 kmh 29.92 in1013.2 mb 0.00 in0.0 mm 0.00 in0.0 mm 0.26 in6.6 mm
07:55 PM 76.0°F24.4°C 73.2°F22.9°C 91% 1.6 mph SE2.6 kmh SE 4.0 mph6.4 kmh 29.92 in1013.2 mb 0.00 in0.0 mm 0.00 in0.0 mm 0.26 in6.6 mm
08:40 PM 73.7°F23.2°C 71.8°F22.1°C 94% Calm Calm 1.0 mph1.6 kmh 29.93 in1013.5 mb 0.00 in0.0 mm 0.00 in0.0 mm 0.26 in6.6 mm
09:11 PM 72.9°F22.7°C 71.4°F21.9°C 95% Calm Calm 1.0 mph1.6 kmh 29.94 in1013.9 mb 0.00 in0.0 mm 0.00 in0.0 mm 0.26 in6.6 mm
09:16 PM 72.8°F22.7°C 71.3°F21.8°C 95% Calm Calm 1.3 mph2.1 kmh 29.94 in1013.9 mb 0.00 in0.0 mm 0.00 in0.0 mm 0.26 in6.6 mm
10:21 PM 72.5°F22.5°C 71.3°F21.8°C 96% Calm Calm 1.0 mph1.6 kmh 29.96 in1014.6 mb 0.00 in0.0 mm 0.00 in0.0 mm 0.26 in6.6 mm
10:46 PM 72.4°F22.4°C 71.2°F21.8°C 96% Calm Calm 1.3 mph2.1 kmh 29.96 in1014.6 mb 0.00 in0.0 mm 0.00 in0.0 mm 0.26 in6.6 mm
11:06 PM 72.6°F22.6°C 71.4°F21.9°C 96% Calm Calm -- 29.96 in1014.6 mb 0.00 in0.0 mm 0.00 in0.0 mm 0.26 in6.6 mm
11:26 PM 72.8°F22.7°C 71.6°F22.0°C 96% 1.3 mph NE2.1 kmh NE 1.3 mph2.1 kmh 29.96 in1014.6 mb 0.00 in0.0 mm 0.00 in0.0 mm 0.26 in6.6 mm
11:31 PM 72.8°F22.7°C 71.6°F22.0°C 96% Calm Calm 1.3 mph2.1 kmh 29.96 in1014.6 mb 0.00 in0.0 mm 0.00 in0.0 mm 0.26 in6.6 mm
11:36 PM 72.8°F22.7°C 71.6°F22.0°C 96% 1.3 mph NE2.1 kmh NE 1.3 mph2.1 kmh 29.96 in1014.6 mb 0.00 in0.0 mm 0.00 in0.0 mm 0.26 in6.6 mm
11:41 PM 72.8°F22.7°C 71.6°F22.0°C 96% Calm Calm 1.3 mph2.1 kmh 29.96 in1014.6 mb 0.00 in0.0 mm 0.00 in0.0 mm 0.26 in6.6 mm
11:46 PM 72.8°F22.7°C 71.6°F22.0°C 96% Calm Calm 1.3 mph2.1 kmh 29.97 in1014.9 mb 0.00 in0.0 mm 0.00 in0.0 mm 0.26 in6.6 mm
11:51 PM 72.8°F22.7°C 71.6°F22.0°C 96% Calm Calm 1.0 mph1.6 kmh 29.97 in1014.9 mb 0.00 in0.0 mm 0.00 in0.0 mm 0.26 in6.6 mm
11:56 PM 72.8°F22.7°C 71.6°F22.0°C 96% Calm Calm -- 29.97 in1014.9 mb 0.00 in0.0 mm 0.00 in0.0 mm 0.26 in6.6 mm